sensor_id;sensor_type;location;lat;lon;timestamp;P1;durP1;ratioP1;P2;durP2;ratioP2
11588;SDS011;5850;51.360;12.362;2022-09-28T00:00:08;2.03;;;1.60;;
11588;SDS011;5850;51.360;12.362;2022-09-28T00:02:37;1.93;;;1.20;;
11588;SDS011;5850;51.360;12.362;2022-09-28T00:05:06;1.30;;;1.20;;
11588;SDS011;5850;51.360;12.362;2022-09-28T00:07:34;1.63;;;1.53;;
11588;SDS011;5850;51.360;12.362;2022-09-28T00:10:03;1.43;;;1.33;;
11588;SDS011;5850;51.360;12.362;2022-09-28T00:12:31;1.40;;;1.30;;
11588;SDS011;5850;51.360;12.362;2022-09-28T00:15:00;1.43;;;1.33;;
11588;SDS011;5850;51.360;12.362;2022-09-28T00:17:29;1.33;;;1.23;;
11588;SDS011;5850;51.360;12.362;2022-09-28T00:19:57;3.83;;;1.50;;
11588;SDS011;5850;51.360;12.362;2022-09-28T00:22:25;1.60;;;1.50;;
11588;SDS011;5850;51.360;12.362;2022-09-28T00:24:54;1.70;;;1.60;;
11588;SDS011;5850;51.360;12.362;2022-09-28T00:27:23;1.47;;;1.30;;
11588;SDS011;5850;51.360;12.362;2022-09-28T00:29:51;1.90;;;1.70;;
11588;SDS011;5850;51.360;12.362;2022-09-28T00:32:19;1.40;;;1.30;;
11588;SDS011;5850;51.360;12.362;2022-09-28T00:34:50;1.77;;;1.60;;
11588;SDS011;5850;51.360;12.362;2022-09-28T00:37:18;1.40;;;1.30;;
11588;SDS011;5850;51.360;12.362;2022-09-28T00:39:47;1.73;;;1.63;;
11588;SDS011;5850;51.360;12.362;2022-09-28T00:42:17;1.90;;;1.40;;
11588;SDS011;5850;51.360;12.362;2022-09-28T00:44:51;1.73;;;1.40;;
11588;SDS011;5850;51.360;12.362;2022-09-28T00:47:25;1.50;;;1.40;;
11588;SDS011;5850;51.360;12.362;2022-09-28T00:57:09;1.63;;;1.40;;
11588;SDS011;5850;51.360;12.362;2022-09-28T00:59:38;1.67;;;1.50;;
11588;SDS011;5850;51.360;12.362;2022-09-28T01:02:06;1.67;;;1.50;;
11588;SDS011;5850;51.360;12.362;2022-09-28T01:04:36;1.73;;;1.57;;
11588;SDS011;5850;51.360;12.362;2022-09-28T01:07:05;2.37;;;1.77;;
11588;SDS011;5850;51.360;12.362;2022-09-28T01:09:36;2.07;;;1.87;;
11588;SDS011;5850;51.360;12.362;2022-09-28T01:12:06;1.50;;;1.40;;
11588;SDS011;5850;51.360;12.362;2022-09-28T01:14:34;1.67;;;1.57;;
11588;SDS011;5850;51.360;12.362;2022-09-28T01:17:15;1.93;;;1.57;;
11588;SDS011;5850;51.360;12.362;2022-09-28T01:20:25;2.07;;;1.70;;
11588;SDS011;5850;51.360;12.362;2022-09-28T01:23:18;1.83;;;1.40;;
11588;SDS011;5850;51.360;12.362;2022-09-28T01:29:55;1.53;;;1.40;;
11588;SDS011;5850;51.360;12.362;2022-09-28T01:32:26;1.43;;;1.33;;
11588;SDS011;5850;51.360;12.362;2022-09-28T01:38:03;2.17;;;1.30;;
11588;SDS011;5850;51.360;12.362;2022-09-28T01:40:33;1.27;;;1.17;;
11588;SDS011;5850;51.360;12.362;2022-09-28T01:43:05;1.10;;;1.10;;
11588;SDS011;5850;51.360;12.362;2022-09-28T01:45:45;1.10;;;1.10;;
11588;SDS011;5850;51.360;12.362;2022-09-28T01:48:41;1.73;;;1.10;;
11588;SDS011;5850;51.360;12.362;2022-09-28T01:51:18;1.40;;;1.30;;
11588;SDS011;5850;51.360;12.362;2022-09-28T01:54:00;0.90;;;0.90;;
11588;SDS011;5850;51.360;12.362;2022-09-28T01:56:38;1.40;;;1.30;;
11588;SDS011;5850;51.360;12.362;2022-09-28T01:59:17;1.50;;;1.20;;
11588;SDS011;5850;51.360;12.362;2022-09-28T02:01:52;1.40;;;1.30;;
11588;SDS011;5850;51.360;12.362;2022-09-28T02:07:24;1.20;;;1.10;;
11588;SDS011;5850;51.360;12.362;2022-09-28T02:10:15;1.50;;;1.40;;
11588;SDS011;5850;51.360;12.362;2022-09-28T02:12:54;1.40;;;1.27;;
11588;SDS011;5850;51.360;12.362;2022-09-28T02:15:51;1.63;;;1.50;;
11588;SDS011;5850;51.360;12.362;2022-09-28T02:18:27;1.40;;;1.30;;
11588;SDS011;5850;51.360;12.362;2022-09-28T02:20:58;1.20;;;1.20;;
11588;SDS011;5850;51.360;12.362;2022-09-28T02:23:56;3.40;;;1.30;;
11588;SDS011;5850;51.360;12.362;2022-09-28T02:26:31;2.60;;;1.40;;
11588;SDS011;5850;51.360;12.362;2022-09-28T02:29:03;1.60;;;1.40;;
11588;SDS011;5850;51.360;12.362;2022-09-28T02:31:31;1.93;;;1.60;;
11588;SDS011;5850;51.360;12.362;2022-09-28T02:34:00;1.63;;;1.40;;
11588;SDS011;5850;51.360;12.362;2022-09-28T02:36:28;1.60;;;1.50;;
11588;SDS011;5850;51.360;12.362;2022-09-28T02:38:56;1.93;;;1.40;;
11588;SDS011;5850;51.360;12.362;2022-09-28T02:47:26;1.73;;;1.30;;
11588;SDS011;5850;51.360;12.362;2022-09-28T02:56:42;2.00;;;1.20;;
11588;SDS011;5850;51.360;12.362;2022-09-28T03:05:10;2.23;;;1.40;;
11588;SDS011;5850;51.360;12.362;2022-09-28T03:07:59;3.03;;;1.30;;
11588;SDS011;5850;51.360;12.362;2022-09-28T03:11:11;1.40;;;1.30;;
11588;SDS011;5850;51.360;12.362;2022-09-28T03:13:45;2.10;;;1.37;;
11588;SDS011;5850;51.360;12.362;2022-09-28T03:16:15;1.30;;;1.20;;
11588;SDS011;5850;51.360;12.362;2022-09-28T03:18:45;1.60;;;1.50;;
11588;SDS011;5850;51.360;12.362;2022-09-28T03:21:14;2.77;;;1.30;;
11588;SDS011;5850;51.360;12.362;2022-09-28T03:23:42;1.57;;;1.30;;
11588;SDS011;5850;51.360;12.362;2022-09-28T03:26:12;1.20;;;1.10;;
11588;SDS011;5850;51.360;12.362;2022-09-28T03:28:42;2.57;;;1.20;;
11588;SDS011;5850;51.360;12.362;2022-09-28T03:31:10;2.10;;;1.10;;
11588;SDS011;5850;51.360;12.362;2022-09-28T03:33:38;1.27;;;1.17;;
11588;SDS011;5850;51.360;12.362;2022-09-28T03:36:06;1.40;;;1.00;;
11588;SDS011;5850;51.360;12.362;2022-09-28T03:38:35;1.60;;;1.50;;
11588;SDS011;5850;51.360;12.362;2022-09-28T03:41:03;1.47;;;1.37;;
11588;SDS011;5850;51.360;12.362;2022-09-28T03:43:32;2.93;;;1.30;;
11588;SDS011;5850;51.360;12.362;2022-09-28T03:46:00;1.67;;;1.20;;
11588;SDS011;5850;51.360;12.362;2022-09-28T03:48:30;2.33;;;1.40;;
11588;SDS011;5850;51.360;12.362;2022-09-28T03:51:02;1.17;;;1.07;;
11588;SDS011;5850;51.360;12.362;2022-09-28T03:53:34;1.30;;;1.20;;
11588;SDS011;5850;51.360;12.362;2022-09-28T03:56:03;2.63;;;1.20;;
11588;SDS011;5850;51.360;12.362;2022-09-28T03:58:40;2.53;;;1.53;;
11588;SDS011;5850;51.360;12.362;2022-09-28T04:01:10;1.10;;;1.10;;
11588;SDS011;5850;51.360;12.362;2022-09-28T04:03:43;1.30;;;1.20;;
11588;SDS011;5850;51.360;12.362;2022-09-28T04:06:12;1.17;;;1.10;;
11588;SDS011;5850;51.360;12.362;2022-09-28T04:08:41;1.10;;;1.00;;
11588;SDS011;5850;51.360;12.362;2022-09-28T04:11:09;1.40;;;1.30;;
11588;SDS011;5850;51.360;12.362;2022-09-28T04:13:37;2.93;;;1.40;;
11588;SDS011;5850;51.360;12.362;2022-09-28T04:16:06;1.87;;;1.30;;
11588;SDS011;5850;51.360;12.362;2022-09-28T04:18:36;1.40;;;1.30;;
11588;SDS011;5850;51.360;12.362;2022-09-28T04:21:05;5.30;;;1.80;;
11588;SDS011;5850;51.360;12.362;2022-09-28T04:23:37;3.73;;;1.50;;
11588;SDS011;5850;51.360;12.362;2022-09-28T04:26:07;2.53;;;1.60;;
11588;SDS011;5850;51.360;12.362;2022-09-28T04:28:44;1.60;;;1.50;;
11588;SDS011;5850;51.360;12.362;2022-09-28T04:34:06;2.47;;;1.50;;
11588;SDS011;5850;51.360;12.362;2022-09-28T04:36:35;1.67;;;1.30;;
11588;SDS011;5850;51.360;12.362;2022-09-28T04:39:03;1.50;;;1.40;;
11588;SDS011;5850;51.360;12.362;2022-09-28T04:41:32;1.73;;;1.63;;
11588;SDS011;5850;51.360;12.362;2022-09-28T04:44:00;1.80;;;1.70;;
11588;SDS011;5850;51.360;12.362;2022-09-28T04:46:28;2.90;;;1.70;;
11588;SDS011;5850;51.360;12.362;2022-09-28T04:49:01;2.03;;;1.83;;
11588;SDS011;5850;51.360;12.362;2022-09-28T04:51:30;1.93;;;1.73;;
11588;SDS011;5850;51.360;12.362;2022-09-28T04:53:58;1.80;;;1.70;;
11588;SDS011;5850;51.360;12.362;2022-09-28T04:56:26;2.63;;;2.07;;
11588;SDS011;5850;51.360;12.362;2022-09-28T04:58:54;3.40;;;1.97;;
11588;SDS011;5850;51.360;12.362;2022-09-28T05:01:23;3.93;;;2.03;;
11588;SDS011;5850;51.360;12.362;2022-09-28T05:03:51;3.03;;;1.77;;
11588;SDS011;5850;51.360;12.362;2022-09-28T05:06:19;1.90;;;1.70;;
11588;SDS011;5850;51.360;12.362;2022-09-28T05:08:53;2.43;;;1.87;;
11588;SDS011;5850;51.360;12.362;2022-09-28T05:11:22;3.97;;;1.97;;
11588;SDS011;5850;51.360;12.362;2022-09-28T05:13:50;4.33;;;2.00;;
11588;SDS011;5850;51.360;12.362;2022-09-28T05:16:18;2.37;;;1.90;;
11588;SDS011;5850;51.360;12.362;2022-09-28T05:18:47;3.50;;;1.90;;
11588;SDS011;5850;51.360;12.362;2022-09-28T05:21:15;2.60;;;1.80;;
11588;SDS011;5850;51.360;12.362;2022-09-28T05:23:45;3.87;;;2.17;;
11588;SDS011;5850;51.360;12.362;2022-09-28T05:26:14;2.37;;;1.90;;
11588;SDS011;5850;51.360;12.362;2022-09-28T05:28:42;1.97;;;1.70;;
11588;SDS011;5850;51.360;12.362;2022-09-28T05:31:11;5.37;;;2.60;;
11588;SDS011;5850;51.360;12.362;2022-09-28T05:33:39;1.97;;;1.77;;
11588;SDS011;5850;51.360;12.362;2022-09-28T05:36:08;2.53;;;2.00;;
11588;SDS011;5850;51.360;12.362;2022-09-28T05:38:37;2.57;;;2.37;;
11588;SDS011;5850;51.360;12.362;2022-09-28T05:41:05;2.73;;;2.27;;
11588;SDS011;5850;51.360;12.362;2022-09-28T05:43:33;2.30;;;2.10;;
11588;SDS011;5850;51.360;12.362;2022-09-28T05:46:01;2.67;;;1.90;;
11588;SDS011;5850;51.360;12.362;2022-09-28T05:48:30;3.77;;;2.30;;
11588;SDS011;5850;51.360;12.362;2022-09-28T05:50:59;3.90;;;2.60;;
11588;SDS011;5850;51.360;12.362;2022-09-28T05:53:27;2.70;;;2.30;;
11588;SDS011;5850;51.360;12.362;2022-09-28T05:55:56;4.53;;;2.70;;
11588;SDS011;5850;51.360;12.362;2022-09-28T05:58:26;3.80;;;2.70;;
11588;SDS011;5850;51.360;12.362;2022-09-28T06:00:55;2.77;;;2.37;;
11588;SDS011;5850;51.360;12.362;2022-09-28T06:03:25;2.93;;;2.40;;
11588;SDS011;5850;51.360;12.362;2022-09-28T06:05:53;4.67;;;2.63;;
11588;SDS011;5850;51.360;12.362;2022-09-28T06:08:22;3.07;;;2.30;;
11588;SDS011;5850;51.360;12.362;2022-09-28T06:10:50;3.27;;;2.97;;
11588;SDS011;5850;51.360;12.362;2022-09-28T06:13:18;3.43;;;2.47;;
11588;SDS011;5850;51.360;12.362;2022-09-28T06:15:46;5.33;;;2.70;;
11588;SDS011;5850;51.360;12.362;2022-09-28T06:18:14;3.13;;;2.30;;
11588;SDS011;5850;51.360;12.362;2022-09-28T06:20:43;3.87;;;2.67;;
11588;SDS011;5850;51.360;12.362;2022-09-28T06:23:11;3.17;;;2.50;;
11588;SDS011;5850;51.360;12.362;2022-09-28T06:25:40;4.10;;;2.80;;
11588;SDS011;5850;51.360;12.362;2022-09-28T06:28:10;3.50;;;2.60;;
11588;SDS011;5850;51.360;12.362;2022-09-28T06:30:40;4.87;;;2.60;;
11588;SDS011;5850;51.360;12.362;2022-09-28T06:33:11;5.17;;;3.00;;
11588;SDS011;5850;51.360;12.362;2022-09-28T06:35:40;7.80;;;3.57;;
11588;SDS011;5850;51.360;12.362;2022-09-28T06:38:09;3.77;;;2.80;;
11588;SDS011;5850;51.360;12.362;2022-09-28T06:40:37;3.17;;;2.60;;
11588;SDS011;5850;51.360;12.362;2022-09-28T06:43:09;4.63;;;3.10;;
11588;SDS011;5850;51.360;12.362;2022-09-28T06:45:40;3.87;;;2.90;;
11588;SDS011;5850;51.360;12.362;2022-09-28T06:48:10;4.97;;;3.03;;
11588;SDS011;5850;51.360;12.362;2022-09-28T06:50:39;5.33;;;3.10;;
11588;SDS011;5850;51.360;12.362;2022-09-28T06:53:08;6.07;;;3.30;;
11588;SDS011;5850;51.360;12.362;2022-09-28T06:55:40;3.60;;;3.10;;
11588;SDS011;5850;51.360;12.362;2022-09-28T06:58:12;5.73;;;3.37;;
11588;SDS011;5850;51.360;12.362;2022-09-28T07:00:45;3.33;;;3.03;;
11588;SDS011;5850;51.360;12.362;2022-09-28T07:03:17;4.00;;;3.43;;
11588;SDS011;5850;51.360;12.362;2022-09-28T07:05:49;3.93;;;3.10;;
11588;SDS011;5850;51.360;12.362;2022-09-28T07:08:23;6.33;;;3.50;;
11588;SDS011;5850;51.360;12.362;2022-09-28T07:10:54;5.43;;;3.50;;
11588;SDS011;5850;51.360;12.362;2022-09-28T07:13:23;5.40;;;3.60;;
11588;SDS011;5850;51.360;12.362;2022-09-28T07:16:14;5.97;;;4.20;;
11588;SDS011;5850;51.360;12.362;2022-09-28T07:18:49;8.83;;;4.30;;
11588;SDS011;5850;51.360;12.362;2022-09-28T07:21:18;4.60;;;4.10;;
11588;SDS011;5850;51.360;12.362;2022-09-28T07:23:55;4.97;;;4.00;;
11588;SDS011;5850;51.360;12.362;2022-09-28T07:26:23;5.97;;;4.33;;
11588;SDS011;5850;51.360;12.362;2022-09-28T07:28:52;8.57;;;4.80;;
11588;SDS011;5850;51.360;12.362;2022-09-28T07:31:21;8.37;;;4.60;;
11588;SDS011;5850;51.360;12.362;2022-09-28T07:33:50;4.47;;;3.70;;
11588;SDS011;5850;51.360;12.362;2022-09-28T07:36:19;6.07;;;4.17;;
11588;SDS011;5850;51.360;12.362;2022-09-28T07:38:48;4.63;;;3.53;;
11588;SDS011;5850;51.360;12.362;2022-09-28T07:41:20;8.43;;;4.00;;
11588;SDS011;5850;51.360;12.362;2022-09-28T07:43:58;6.13;;;4.93;;
11588;SDS011;5850;51.360;12.362;2022-09-28T07:46:34;4.67;;;4.07;;
11588;SDS011;5850;51.360;12.362;2022-09-28T07:49:03;4.57;;;3.90;;
11588;SDS011;5850;51.360;12.362;2022-09-28T07:51:56;4.40;;;3.80;;
11588;SDS011;5850;51.360;12.362;2022-09-28T07:54:24;5.77;;;4.10;;
11588;SDS011;5850;51.360;12.362;2022-09-28T07:56:53;4.40;;;4.00;;
11588;SDS011;5850;51.360;12.362;2022-09-28T07:59:21;4.00;;;3.70;;
11588;SDS011;5850;51.360;12.362;2022-09-28T08:01:50;4.63;;;3.43;;
11588;SDS011;5850;51.360;12.362;2022-09-28T08:04:18;4.07;;;3.33;;
11588;SDS011;5850;51.360;12.362;2022-09-28T08:06:48;6.60;;;3.77;;
11588;SDS011;5850;51.360;12.362;2022-09-28T08:09:17;4.10;;;3.50;;
11588;SDS011;5850;51.360;12.362;2022-09-28T08:11:45;5.40;;;3.50;;
11588;SDS011;5850;51.360;12.362;2022-09-28T08:14:14;4.30;;;3.20;;
11588;SDS011;5850;51.360;12.362;2022-09-28T08:16:43;4.27;;;3.50;;
11588;SDS011;5850;51.360;12.362;2022-09-28T08:19:17;3.47;;;3.00;;
11588;SDS011;5850;51.360;12.362;2022-09-28T08:21:45;4.03;;;2.80;;
11588;SDS011;5850;51.360;12.362;2022-09-28T08:24:12;3.17;;;2.93;;
11588;SDS011;5850;51.360;12.362;2022-09-28T08:26:42;3.53;;;3.03;;
11588;SDS011;5850;51.360;12.362;2022-09-28T08:29:11;2.70;;;2.37;;
11588;SDS011;5850;51.360;12.362;2022-09-28T08:31:39;3.00;;;2.27;;
11588;SDS011;5850;51.360;12.362;2022-09-28T08:34:08;3.47;;;2.40;;
11588;SDS011;5850;51.360;12.362;2022-09-28T08:36:36;2.53;;;2.30;;
11588;SDS011;5850;51.360;12.362;2022-09-28T08:39:04;3.13;;;2.33;;
11588;SDS011;5850;51.360;12.362;2022-09-28T08:41:47;2.50;;;2.17;;
11588;SDS011;5850;51.360;12.362;2022-09-28T08:44:39;1.70;;;1.30;;
11588;SDS011;5850;51.360;12.362;2022-09-28T08:47:21;1.63;;;1.27;;
11588;SDS011;5850;51.360;12.362;2022-09-28T08:50:22;1.23;;;1.10;;
11588;SDS011;5850;51.360;12.362;2022-09-28T08:52:56;1.90;;;1.23;;
11588;SDS011;5850;51.360;12.362;2022-09-28T08:55:42;2.33;;;1.43;;
11588;SDS011;5850;51.360;12.362;2022-09-28T08:58:12;1.27;;;1.20;;
11588;SDS011;5850;51.360;12.362;2022-09-28T09:00:50;1.30;;;1.17;;
11588;SDS011;5850;51.360;12.362;2022-09-28T09:03:33;1.47;;;1.20;;
11588;SDS011;5850;51.360;12.362;2022-09-28T09:14:50;1.33;;;1.03;;
11588;SDS011;5850;51.360;12.362;2022-09-28T09:17:37;1.10;;;1.00;;
11588;SDS011;5850;51.360;12.362;2022-09-28T09:23:17;1.27;;;0.90;;
11588;SDS011;5850;51.360;12.362;2022-09-28T09:25:59;0.70;;;0.70;;
11588;SDS011;5850;51.360;12.362;2022-09-28T09:34:37;0.70;;;0.70;;
11588;SDS011;5850;51.360;12.362;2022-09-28T09:40:27;1.30;;;1.20;;
11588;SDS011;5850;51.360;12.362;2022-09-28T09:43:20;0.90;;;0.90;;
11588;SDS011;5850;51.360;12.362;2022-09-28T09:52:52;0.63;;;0.63;;
11588;SDS011;5850;51.360;12.362;2022-09-28T09:55:37;0.70;;;0.70;;
11588;SDS011;5850;51.360;12.362;2022-09-28T09:58:18;0.67;;;0.67;;
11588;SDS011;5850;51.360;12.362;2022-09-28T10:00:53;2.17;;;1.03;;
11588;SDS011;5850;51.360;12.362;2022-09-28T10:03:28;0.67;;;0.60;;
11588;SDS011;5850;51.360;12.362;2022-09-28T10:05:59;0.83;;;0.60;;
11588;SDS011;5850;51.360;12.362;2022-09-28T10:08:34;1.03;;;0.60;;
11588;SDS011;5850;51.360;12.362;2022-09-28T10:11:10;1.33;;;0.80;;
11588;SDS011;5850;51.360;12.362;2022-09-28T10:14:02;1.17;;;0.67;;
11588;SDS011;5850;51.360;12.362;2022-09-28T10:16:33;0.77;;;0.77;;
11588;SDS011;5850;51.360;12.362;2022-09-28T10:19:02;0.60;;;0.60;;
11588;SDS011;5850;51.360;12.362;2022-09-28T10:21:30;0.90;;;0.70;;
11588;SDS011;5850;51.360;12.362;2022-09-28T10:24:02;0.70;;;0.50;;
11588;SDS011;5850;51.360;12.362;2022-09-28T10:26:39;0.60;;;0.60;;
11588;SDS011;5850;51.360;12.362;2022-09-28T10:29:14;0.53;;;0.53;;
11588;SDS011;5850;51.360;12.362;2022-09-28T10:31:49;0.97;;;0.77;;
11588;SDS011;5850;51.360;12.362;2022-09-28T10:34:25;1.93;;;0.70;;
11588;SDS011;5850;51.360;12.362;2022-09-28T10:36:57;2.27;;;0.70;;
11588;SDS011;5850;51.360;12.362;2022-09-28T10:39:30;0.70;;;0.70;;
11588;SDS011;5850;51.360;12.362;2022-09-28T10:41:59;1.07;;;0.97;;
11588;SDS011;5850;51.360;12.362;2022-09-28T10:44:33;0.70;;;0.70;;
11588;SDS011;5850;51.360;12.362;2022-09-28T10:47:20;1.60;;;0.90;;
11588;SDS011;5850;51.360;12.362;2022-09-28T10:49:51;1.13;;;0.63;;
11588;SDS011;5850;51.360;12.362;2022-09-28T10:52:31;1.20;;;0.60;;
11588;SDS011;5850;51.360;12.362;2022-09-28T10:55:21;0.73;;;0.73;;
11588;SDS011;5850;51.360;12.362;2022-09-28T10:57:58;2.03;;;0.90;;
11588;SDS011;5850;51.360;12.362;2022-09-28T11:03:17;0.80;;;0.80;;
11588;SDS011;5850;51.360;12.362;2022-09-28T11:06:06;0.90;;;0.90;;
11588;SDS011;5850;51.360;12.362;2022-09-28T11:08:36;0.80;;;0.80;;
11588;SDS011;5850;51.360;12.362;2022-09-28T11:11:13;1.00;;;1.00;;
11588;SDS011;5850;51.360;12.362;2022-09-28T11:16:17;1.03;;;0.93;;
11588;SDS011;5850;51.360;12.362;2022-09-28T11:18:46;1.03;;;1.03;;
11588;SDS011;5850;51.360;12.362;2022-09-28T11:21:15;1.30;;;0.90;;
11588;SDS011;5850;51.360;12.362;2022-09-28T11:26:33;1.90;;;1.10;;
11588;SDS011;5850;51.360;12.362;2022-09-28T11:29:18;1.20;;;1.00;;
11588;SDS011;5850;51.360;12.362;2022-09-28T11:32:02;1.30;;;1.20;;
11588;SDS011;5850;51.360;12.362;2022-09-28T11:34:36;1.33;;;1.23;;
11588;SDS011;5850;51.360;12.362;2022-09-28T11:46:00;3.10;;;2.40;;
11588;SDS011;5850;51.360;12.362;2022-09-28T11:48:46;1.40;;;1.30;;
11588;SDS011;5850;51.360;12.362;2022-09-28T11:51:35;1.50;;;1.40;;
11588;SDS011;5850;51.360;12.362;2022-09-28T11:54:26;3.73;;;1.77;;
11588;SDS011;5850;51.360;12.362;2022-09-28T11:57:15;2.07;;;1.80;;
11588;SDS011;5850;51.360;12.362;2022-09-28T11:59:52;2.30;;;2.10;;
11588;SDS011;5850;51.360;12.362;2022-09-28T12:05:40;1.60;;;1.50;;
11588;SDS011;5850;51.360;12.362;2022-09-28T12:08:34;1.47;;;1.37;;
11588;SDS011;5850;51.360;12.362;2022-09-28T12:11:10;1.40;;;1.30;;
11588;SDS011;5850;51.360;12.362;2022-09-28T12:13:45;1.80;;;1.40;;
11588;SDS011;5850;51.360;12.362;2022-09-28T12:16:20;1.60;;;1.50;;
11588;SDS011;5850;51.360;12.362;2022-09-28T12:20:00;1.70;;;1.60;;
11588;SDS011;5850;51.360;12.362;2022-09-28T12:22:37;2.00;;;1.80;;
11588;SDS011;5850;51.360;12.362;2022-09-28T12:25:13;1.50;;;1.40;;
11588;SDS011;5850;51.360;12.362;2022-09-28T12:27:52;1.60;;;1.50;;
11588;SDS011;5850;51.360;12.362;2022-09-28T12:30:26;1.83;;;1.73;;
11588;SDS011;5850;51.360;12.362;2022-09-28T12:46:46;1.50;;;1.40;;
11588;SDS011;5850;51.360;12.362;2022-09-28T12:49:24;1.40;;;1.30;;
11588;SDS011;5850;51.360;12.362;2022-09-28T13:07:04;1.40;;;1.30;;
11588;SDS011;5850;51.360;12.362;2022-09-28T13:13:06;2.33;;;1.70;;
11588;SDS011;5850;51.360;12.362;2022-09-28T13:16:16;2.50;;;1.60;;
11588;SDS011;5850;51.360;12.362;2022-09-28T13:18:52;1.90;;;1.70;;
11588;SDS011;5850;51.360;12.362;2022-09-28T13:21:40;1.60;;;1.50;;
11588;SDS011;5850;51.360;12.362;2022-09-28T13:24:25;1.60;;;1.50;;
11588;SDS011;5850;51.360;12.362;2022-09-28T13:27:01;2.03;;;1.60;;
11588;SDS011;5850;51.360;12.362;2022-09-28T13:29:39;1.93;;;1.77;;
11588;SDS011;5850;51.360;12.362;2022-09-28T13:32:09;1.77;;;1.60;;
11588;SDS011;5850;51.360;12.362;2022-09-28T13:34:38;2.00;;;1.77;;
11588;SDS011;5850;51.360;12.362;2022-09-28T13:48:16;2.23;;;1.70;;
11588;SDS011;5850;51.360;12.362;2022-09-28T13:51:17;1.53;;;1.43;;
11588;SDS011;5850;51.360;12.362;2022-09-28T13:56:57;2.93;;;1.80;;
11588;SDS011;5850;51.360;12.362;2022-09-28T14:02:38;1.67;;;1.57;;
11588;SDS011;5850;51.360;12.362;2022-09-28T14:16:23;2.17;;;1.80;;
11588;SDS011;5850;51.360;12.362;2022-09-28T14:25:22;3.80;;;3.10;;
11588;SDS011;5850;51.360;12.362;2022-09-28T14:27:59;2.80;;;2.30;;
11588;SDS011;5850;51.360;12.362;2022-09-28T14:33:14;1.80;;;1.70;;
11588;SDS011;5850;51.360;12.362;2022-09-28T14:35:54;2.17;;;1.40;;
11588;SDS011;5850;51.360;12.362;2022-09-28T14:38:28;2.33;;;1.90;;
11588;SDS011;5850;51.360;12.362;2022-09-28T14:41:32;2.93;;;1.53;;
11588;SDS011;5850;51.360;12.362;2022-09-28T14:44:07;1.60;;;1.50;;
11588;SDS011;5850;51.360;12.362;2022-09-28T14:54:19;2.93;;;2.53;;
11588;SDS011;5850;51.360;12.362;2022-09-28T14:59:38;1.90;;;1.70;;
11588;SDS011;5850;51.360;12.362;2022-09-28T15:04:42;1.83;;;1.73;;
11588;SDS011;5850;51.360;12.362;2022-09-28T15:07:28;1.53;;;1.43;;
11588;SDS011;5850;51.360;12.362;2022-09-28T15:13:23;1.70;;;1.60;;
11588;SDS011;5850;51.360;12.362;2022-09-28T15:15:54;2.00;;;1.80;;
11588;SDS011;5850;51.360;12.362;2022-09-28T15:21:43;1.33;;;1.23;;
11588;SDS011;5850;51.360;12.362;2022-09-28T15:24:27;2.10;;;1.90;;
11588;SDS011;5850;51.360;12.362;2022-09-28T15:27:01;1.83;;;1.63;;
11588;SDS011;5850;51.360;12.362;2022-09-28T15:29:40;1.90;;;1.80;;
11588;SDS011;5850;51.360;12.362;2022-09-28T15:32:26;1.60;;;1.50;;
11588;SDS011;5850;51.360;12.362;2022-09-28T15:35:07;1.60;;;1.50;;
11588;SDS011;5850;51.360;12.362;2022-09-28T15:37:42;1.60;;;1.50;;
11588;SDS011;5850;51.360;12.362;2022-09-28T15:40:12;1.90;;;1.80;;
11588;SDS011;5850;51.360;12.362;2022-09-28T15:42:44;2.10;;;1.90;;
11588;SDS011;5850;51.360;12.362;2022-09-28T15:47:53;1.90;;;1.70;;
11588;SDS011;5850;51.360;12.362;2022-09-28T15:53:40;1.60;;;1.50;;
11588;SDS011;5850;51.360;12.362;2022-09-28T15:56:24;2.37;;;1.97;;
11588;SDS011;5850;51.360;12.362;2022-09-28T15:59:35;2.10;;;1.90;;
11588;SDS011;5850;51.360;12.362;2022-09-28T16:02:15;1.90;;;1.80;;
11588;SDS011;5850;51.360;12.362;2022-09-28T16:04:55;2.07;;;1.87;;
11588;SDS011;5850;51.360;12.362;2022-09-28T16:07:34;2.20;;;1.87;;
11588;SDS011;5850;51.360;12.362;2022-09-28T16:15:18;2.53;;;2.10;;
11588;SDS011;5850;51.360;12.362;2022-09-28T16:17:55;5.40;;;2.07;;
11588;SDS011;5850;51.360;12.362;2022-09-28T16:20:49;3.33;;;2.50;;
11588;SDS011;5850;51.360;12.362;2022-09-28T16:25:57;3.30;;;2.47;;
11588;SDS011;5850;51.360;12.362;2022-09-28T16:31:05;2.90;;;2.60;;
11588;SDS011;5850;51.360;12.362;2022-09-28T16:33:38;3.10;;;2.67;;
11588;SDS011;5850;51.360;12.362;2022-09-28T16:36:20;3.30;;;3.00;;
11588;SDS011;5850;51.360;12.362;2022-09-28T16:38:49;4.00;;;2.50;;
11588;SDS011;5850;51.360;12.362;2022-09-28T16:41:20;4.33;;;2.30;;
11588;SDS011;5850;51.360;12.362;2022-09-28T16:43:53;2.93;;;2.50;;
11588;SDS011;5850;51.360;12.362;2022-09-28T16:46:33;4.00;;;2.67;;
11588;SDS011;5850;51.360;12.362;2022-09-28T16:49:04;3.57;;;3.00;;
11588;SDS011;5850;51.360;12.362;2022-09-28T16:51:33;2.83;;;2.60;;
11588;SDS011;5850;51.360;12.362;2022-09-28T16:54:18;3.93;;;2.93;;
11588;SDS011;5850;51.360;12.362;2022-09-28T16:57:10;3.57;;;3.00;;
11588;SDS011;5850;51.360;12.362;2022-09-28T16:59:39;5.77;;;2.93;;
11588;SDS011;5850;51.360;12.362;2022-09-28T17:02:18;3.13;;;2.83;;
11588;SDS011;5850;51.360;12.362;2022-09-28T17:05:12;3.20;;;2.90;;
11588;SDS011;5850;51.360;12.362;2022-09-28T17:07:42;3.80;;;2.73;;
11588;SDS011;5850;51.360;12.362;2022-09-28T17:10:13;3.30;;;3.00;;
11588;SDS011;5850;51.360;12.362;2022-09-28T17:13:19;12.73;;;9.00;;
11588;SDS011;5850;51.360;12.362;2022-09-28T17:15:56;5.70;;;4.43;;
11588;SDS011;5850;51.360;12.362;2022-09-28T17:18:31;4.23;;;3.47;;
11588;SDS011;5850;51.360;12.362;2022-09-28T17:21:02;5.43;;;3.37;;
11588;SDS011;5850;51.360;12.362;2022-09-28T17:23:32;9.80;;;6.30;;
11588;SDS011;5850;51.360;12.362;2022-09-28T17:26:01;15.30;;;9.03;;
11588;SDS011;5850;51.360;12.362;2022-09-28T17:28:31;16.73;;;10.13;;
11588;SDS011;5850;51.360;12.362;2022-09-28T17:31:02;11.37;;;7.77;;
11588;SDS011;5850;51.360;12.362;2022-09-28T17:33:31;10.23;;;7.30;;
11588;SDS011;5850;51.360;12.362;2022-09-28T17:35:59;8.70;;;6.73;;
11588;SDS011;5850;51.360;12.362;2022-09-28T17:38:30;11.27;;;7.23;;
11588;SDS011;5850;51.360;12.362;2022-09-28T17:40:59;10.43;;;7.30;;
11588;SDS011;5850;51.360;12.362;2022-09-28T17:43:27;11.80;;;8.00;;
11588;SDS011;5850;51.360;12.362;2022-09-28T17:45:56;8.80;;;6.67;;
11588;SDS011;5850;51.360;12.362;2022-09-28T17:48:24;8.43;;;6.63;;
11588;SDS011;5850;51.360;12.362;2022-09-28T17:50:53;9.53;;;7.60;;
11588;SDS011;5850;51.360;12.362;2022-09-28T17:53:21;9.50;;;7.53;;
11588;SDS011;5850;51.360;12.362;2022-09-28T17:55:50;9.97;;;7.17;;
11588;SDS011;5850;51.360;12.362;2022-09-28T17:58:19;7.53;;;5.90;;
11588;SDS011;5850;51.360;12.362;2022-09-28T18:00:49;7.63;;;5.43;;
11588;SDS011;5850;51.360;12.362;2022-09-28T18:03:19;7.40;;;6.47;;
11588;SDS011;5850;51.360;12.362;2022-09-28T18:06:02;8.23;;;6.83;;
11588;SDS011;5850;51.360;12.362;2022-09-28T18:08:33;8.87;;;6.70;;
11588;SDS011;5850;51.360;12.362;2022-09-28T18:11:01;9.93;;;7.57;;
11588;SDS011;5850;51.360;12.362;2022-09-28T18:13:30;8.97;;;6.97;;
11588;SDS011;5850;51.360;12.362;2022-09-28T18:15:58;9.53;;;7.43;;
11588;SDS011;5850;51.360;12.362;2022-09-28T18:18:27;9.80;;;7.87;;
11588;SDS011;5850;51.360;12.362;2022-09-28T18:20:56;14.47;;;11.07;;
11588;SDS011;5850;51.360;12.362;2022-09-28T18:23:24;14.43;;;10.47;;
11588;SDS011;5850;51.360;12.362;2022-09-28T18:25:53;11.27;;;8.17;;
11588;SDS011;5850;51.360;12.362;2022-09-28T18:28:21;10.60;;;8.20;;
11588;SDS011;5850;51.360;12.362;2022-09-28T18:30:50;13.33;;;7.40;;
11588;SDS011;5850;51.360;12.362;2022-09-28T18:33:18;10.23;;;7.43;;
11588;SDS011;5850;51.360;12.362;2022-09-28T18:35:53;6.97;;;6.27;;
11588;SDS011;5850;51.360;12.362;2022-09-28T18:38:21;8.23;;;6.37;;
11588;SDS011;5850;51.360;12.362;2022-09-28T18:40:50;7.87;;;6.27;;